Latest Weather Observations for Lockhart River

IDQ60801

Issued at 2:05 pm EST Monday 21 April 2014 (issued every 30 minutes, with the page automatically refreshed every 10 minutes)

About weather observations | Map of weather stations | Latest weather observations for QLD | Other Formats
Station Details ID: 028008 Name: LOCKHART RIVER AIRPORT Lat: -12.79 Lon: 143.30 Height: 18.5 m
Data from the previous 72 hours. | See also: Recent months at Lockhart River
Date/Time
EST
Temp
°C
App
Temp
°C
Dew
Point
Rel
Hum
%
Delta-T
°C
Wind Press
QNH
hPa
Press
MSL
hPa
Rain
since 9 am
mm
Dir
 
Spd
km/h
Gust
km/h
Spd
kts
Gust
kts
21/02:00pm 29.4 31.1 24.7 76 3.3 E 24 37 13 20 1009.7 - 0.2
21/01:30pm 29.0 29.9 23.9 74 3.5 E 26 39 14 21 1009.8 - 0.2
21/01:00pm 29.0 30.0 24.1 75 3.4 E 26 39 14 21 1010.1 - 0.0
21/12:30pm 28.7 29.0 24.3 77 3.1 ESE 30 37 16 20 1010.6 - 0.0
21/12:17pm 28.1 28.6 23.9 78 2.9 ESE 28 48 15 26 1010.9 - 0.0
21/12:00pm 29.0 30.0 24.1 75 3.4 ESE 26 41 14 22 1011.2 1011.1 0.0
21/11:30am 28.9 29.8 24.0 75 3.4 ESE 26 37 14 20 1011.7 - 0.0
21/11:00am 28.3 28.5 23.4 75 3.4 ESE 28 41 15 22 1012.0 - 0.0
21/10:30am 27.8 29.5 24.0 80 2.6 ESE 22 39 12 21 1012.4 - 0.0
21/10:00am 27.4 27.8 23.8 81 2.5 SE 28 37 15 20 1012.3 - 0.0
21/09:30am 26.4 27.1 23.7 85 1.9 ESE 26 35 14 19 1012.3 - 0.0
21/09:00am 26.8 27.9 23.7 83 2.1 ESE 24 32 13 17 1012.1 1012.0 0.2
21/08:30am 26.3 27.1 23.8 86 1.7 ESE 26 43 14 23 1012.0 - 0.2
21/08:00am 25.6 26.3 23.6 89 1.4 SE 26 39 14 21 1011.7 - 0.2
21/07:30am 25.5 27.5 23.6 89 1.3 ESE 19 24 10 13 1011.4 - 0.0
21/07:00am 25.4 27.9 23.8 91 1.1 SE 17 22 9 12 1011.1 - 0.0
21/06:30am 25.2 26.9 23.4 90 1.2 SE 20 30 11 16 1010.7 - 0.0
21/06:00am 25.5 26.7 23.2 87 1.6 SE 22 33 12 18 1010.4 1010.3 0.0
21/05:30am 25.6 27.1 22.7 84 2.0 SE 19 30 10 16 1010.3 - 0.0
21/05:00am 25.4 27.3 22.7 85 1.8 SE 17 24 9 13 1010.2 - 0.0
21/04:30am 25.2 26.7 22.7 86 1.7 SE 19 24 10 13 1010.1 - 0.0
21/04:00am 24.9 26.9 23.0 89 1.3 SE 17 22 9 12 1010.1 - 0.0
21/03:30am 24.7 26.8 23.1 91 1.1 SE 17 22 9 12 1009.9 - 0.0
21/03:03am 25.4 25.3 22.9 86 1.7 SE 28 46 15 25 1009.9 - 0.0
21/03:00am 26.2 26.7 22.7 81 2.4 SE 24 33 13 18 1009.8 1009.7 0.0
21/02:30am 25.9 27.2 22.6 82 2.2 SE 20 30 11 16 1009.9 - 0.0
21/02:00am 26.1 27.2 22.4 80 2.5 SE 20 28 11 15 1010.3 - 0.0
21/01:30am 25.8 26.8 22.1 80 2.5 SE 20 28 11 15 1010.4 - 0.0
21/01:00am 26.4 26.6 22.0 77 2.9 SE 24 35 13 19 1010.6 - 0.0
21/12:30am 26.3 27.2 21.9 77 2.9 SE 20 30 11 16 1010.9 - 0.0
21/12:00am 26.3 27.3 21.7 76 3.1 SE 19 26 10 14 1011.4 1011.3 0.0
 
Date/Time
EST
Temp
°C
App
Temp
°C
Dew
Point
Rel
Hum
%
Delta-T
°C
Wind Press
QNH
hPa
Press
MSL
hPa
Rain
since 9 am
mm
Dir
 
Spd
km/h
Gust
km/h
Spd
kts
Gust
kts
20/11:30pm 26.3 26.6 21.5 75 3.2 SE 22 30 12 16 1011.5 - 0.0
20/11:00pm 26.2 27.0 21.4 75 3.2 SE 19 26 10 14 1011.7 - 0.0
20/10:30pm 26.0 27.1 21.2 75 3.2 SE 17 26 9 14 1011.8 - 0.0
20/10:00pm 26.0 26.1 21.2 75 3.2 SE 22 32 12 17 1011.8 - 0.0
20/09:30pm 26.3 26.0 21.1 73 3.4 SE 24 35 13 19 1011.8 - 0.0
20/09:00pm 26.4 26.3 21.4 74 3.3 SE 24 41 13 22 1011.8 1011.8 0.0
20/08:30pm 26.5 26.1 21.7 75 3.2 SE 26 37 14 20 1011.7 - 0.0
20/08:00pm 26.5 26.1 21.7 75 3.2 SE 26 39 14 21 1011.5 - 0.0
20/07:30pm 26.4 27.2 21.8 76 3.1 SE 20 30 11 16 1011.3 - 0.0
20/07:00pm 26.4 27.0 21.4 74 3.3 SE 20 30 11 16 1011.0 - 0.0
20/06:30pm 26.4 26.9 20.9 72 3.6 ESE 19 26 10 14 1010.8 - 0.0
20/06:00pm 26.5 26.7 20.6 70 3.9 SE 20 33 11 18 1010.6 1010.5 0.0
20/05:30pm 27.0 26.4 21.3 71 3.8 SE 26 39 14 21 1010.3 - 0.0
20/05:00pm 27.1 27.2 21.8 73 3.5 SE 24 32 13 17 1010.0 - 0.0
20/04:30pm 27.3 27.0 21.8 72 3.7 SE 26 35 14 19 1009.8 - 0.0
20/04:00pm 27.8 27.8 21.6 69 4.1 ESE 24 35 13 19 1009.6 - 0.0
20/03:30pm 27.6 27.2 20.9 67 4.4 ESE 24 37 13 20 1009.6 - 0.0
20/03:00pm 27.7 27.0 21.0 67 4.4 ESE 26 41 14 22 1009.8 1009.7 0.0
20/02:30pm 27.8 26.2 20.1 63 5.0 ESE 28 44 15 24 1010.2 - 0.0
20/02:00pm 27.7 25.9 19.5 61 5.3 ESE 28 41 15 22 1010.5 - 0.0
20/01:30pm 28.0 26.3 20.6 64 4.9 ESE 30 43 16 23 1010.7 - 0.0
20/01:00pm 27.4 26.0 20.5 66 4.5 ESE 28 37 15 20 1011.0 - 0.0
20/12:30pm 27.4 27.8 21.0 68 4.2 ESE 20 37 11 20 1011.3 - 0.0
20/12:00pm 27.5 26.4 20.3 65 4.7 ESE 26 41 14 22 1011.7 1011.6 0.0
20/11:30am 27.4 27.5 21.2 69 4.1 ESE 22 33 12 18 1012.0 - 0.0
20/11:00am 27.1 27.3 21.4 71 3.8 ESE 22 32 12 17 1012.4 - 0.0
20/10:30am 27.4 27.0 21.0 68 4.2 ESE 24 32 13 17 1012.5 - 0.0
20/10:00am 27.3 27.9 21.1 69 4.1 ESE 19 26 10 14 1012.3 - 0.0
20/09:30am 27.2 26.2 20.5 67 4.4 ESE 26 41 14 22 1012.2 - 0.0
20/09:00am 27.1 26.5 20.4 66 4.4 ESE 24 39 13 21 1011.8 1011.7 0.0
20/08:30am 26.9 26.3 20.5 68 4.2 ESE 24 35 13 19 1011.4 - 0.0
20/08:00am 26.7 26.8 21.2 72 3.6 ESE 22 35 12 19 1011.2 - 0.0
20/07:30am 26.7 25.7 20.5 69 4.1 ESE 26 41 14 22 1010.8 - 0.0
20/07:00am 26.2 26.8 21.4 75 3.2 ESE 20 28 11 15 1010.6 - 0.0
20/06:30am 26.1 26.4 20.7 72 3.5 ESE 20 30 11 16 1010.5 - 0.0
20/06:00am 26.3 26.2 20.8 71 3.6 ESE 22 35 12 19 1010.2 1010.1 0.0
20/05:30am 26.3 26.9 21.1 73 3.4 ESE 19 28 10 15 1010.0 - 0.0
20/05:00am 26.4 25.3 20.3 69 4.0 ESE 26 35 14 19 1009.9 - 0.0
20/04:30am 26.4 26.2 20.5 70 3.9 ESE 22 32 12 17 1009.9 - 0.0
20/04:00am 26.3 26.6 20.8 71 3.6 ESE 20 30 11 16 1010.1 - 0.0
20/03:30am 26.4 25.7 20.3 69 4.0 ESE 24 33 13 18 1010.1 - 0.0
20/03:00am 26.4 26.2 20.5 70 3.9 ESE 22 43 12 23 1010.2 1010.2 0.0
20/02:30am 26.4 26.3 20.7 71 3.7 ESE 22 33 12 18 1010.3 - 0.0
20/02:00am 26.4 26.8 20.7 71 3.7 ESE 19 35 10 19 1010.7 - 0.0
20/01:30am 26.4 26.3 20.7 71 3.7 ESE 22 33 12 18 1011.0 - 0.0
20/01:00am 26.5 26.8 20.8 71 3.8 ESE 20 32 11 17 1011.3 - 0.0
20/12:30am 26.6 26.5 20.7 70 3.9 ESE 22 30 12 16 1011.7 - 0.0
20/12:00am 26.5 26.5 21.0 72 3.6 ESE 22 33 12 18 1011.8 1011.7 0.0
 
Date/Time
EST
Temp
°C
App
Temp
°C
Dew
Point
Rel
Hum
%
Delta-T
°C
Wind Press
QNH
hPa
Press
MSL
hPa
Rain
since 9 am
mm
Dir
 
Spd
km/h
Gust
km/h
Spd
kts
Gust
kts
19/11:30pm 26.5 26.3 20.6 70 3.9 ESE 22 35 12 19 1011.9 - 0.0
19/11:00pm 26.5 26.0 20.8 71 3.8 ESE 24 39 13 21 1012.1 - 0.0
19/10:30pm 26.6 26.5 21.4 73 3.5 SE 24 35 13 19 1012.2 - 0.0
19/10:00pm 26.6 26.2 20.9 71 3.8 SE 24 35 13 19 1012.2 - 0.0
19/09:30pm 26.5 26.4 20.8 71 3.8 ESE 22 32 12 17 1012.0 - 0.0
19/09:00pm 26.6 26.3 21.1 72 3.6 ESE 24 35 13 19 1011.9 1011.8 0.0
19/08:30pm 26.6 26.8 21.4 73 3.5 ESE 22 33 12 18 1011.7 - 0.0
19/08:00pm 26.4 26.7 20.7 71 3.7 ESE 20 32 11 17 1011.4 - 0.0
19/07:30pm 26.4 26.9 20.9 72 3.6 SE 19 30 10 16 1011.0 - 0.0
19/07:00pm 26.7 26.7 21.7 74 3.3 ESE 24 39 13 21 1010.6 - 0.0
19/06:30pm 26.6 27.6 21.8 75 3.2 ESE 19 30 10 16 1010.6 - 0.0
19/06:00pm 26.7 27.9 21.5 73 3.5 ESE 17 30 9 16 1010.4 1010.3 0.0
19/05:30pm 27.1 27.2 21.8 73 3.5 ESE 24 35 13 19 1010.2 - 0.0
19/05:00pm 27.2 28.1 21.9 73 3.6 ESE 20 30 11 16 1010.2 - 0.0
19/04:30pm 27.5 28.5 21.8 71 3.8 ESE 19 26 10 14 1010.0 - 0.0
19/04:00pm 27.9 28.3 21.7 69 4.2 E 22 32 12 17 1009.8 - 0.0
19/03:30pm 28.4 29.1 22.2 69 4.2 ESE 22 33 12 18 1009.9 - 0.0
19/03:00pm 28.4 28.4 22.4 70 4.1 ESE 26 35 14 19 1010.1 1010.0 0.0
19/02:30pm 28.3 28.5 22.1 69 4.2 ESE 24 35 13 19 1010.4 - 0.0
19/02:00pm 28.7 29.1 22.4 68 4.3 ESE 24 33 13 18 1010.7 - 0.0
19/01:30pm 28.6 29.2 22.1 68 4.4 E 22 35 12 19 1011.2 - 0.0
19/01:00pm 28.2 28.0 22.0 69 4.2 E 26 37 14 20 1011.7 - 0.0
19/12:30pm 28.9 29.2 22.2 67 4.5 E 24 35 13 19 1011.9 - 0.0
19/12:08pm 28.8 28.6 22.8 70 4.1 ESE 28 46 15 25 1012.2 - 0.0
19/12:00pm 28.4 29.1 22.9 72 3.7 E 24 37 13 20 1012.3 1012.3 0.0
19/11:30am 28.7 28.7 23.1 71 3.8 E 28 39 15 21 1012.7 - 0.0
19/11:00am 28.4 29.2 22.4 70 4.1 ESE 22 33 12 18 1013.0 - 0.0
19/10:30am 28.2 28.9 22.2 70 4.0 ESE 22 35 12 19 1013.2 - 0.0
19/10:00am 27.7 28.1 21.7 70 4.0 E 22 32 12 17 1013.6 - 0.0
19/09:30am 27.5 28.4 22.0 72 3.7 ESE 20 32 11 17 1013.4 - 0.0
19/09:00am 27.4 28.7 22.3 73 3.4 ESE 19 30 10 16 1013.0 1012.9 0.4
19/08:30am 27.0 28.6 21.5 72 3.7 ESE 15 35 8 19 1012.7 - 0.4
19/08:00am 26.9 27.0 21.9 74 3.3 ESE 24 37 13 20 1012.3 - 0.4
19/07:30am 26.6 27.8 22.2 77 3.0 ESE 19 30 10 16 1012.2 - 0.4
19/07:00am 26.5 27.1 22.1 77 3.0 ESE 22 32 12 17 1011.7 - 0.4
19/06:30am 26.5 27.4 21.9 76 3.1 ESE 20 32 11 17 1011.3 - 0.4
19/06:00am 26.6 26.8 21.4 73 3.5 ESE 22 32 12 17 1011.1 1011.0 0.4
19/05:30am 26.6 26.8 21.4 73 3.5 ESE 22 35 12 19 1010.8 - 0.4
19/05:00am 26.7 27.1 21.7 74 3.3 ESE 22 35 12 19 1010.6 - 0.4
19/04:30am 26.6 27.5 22.0 76 3.1 ESE 20 35 11 19 1010.6 - 0.4
19/04:00am 26.5 27.8 22.3 78 2.8 ESE 19 28 10 15 1010.7 - 0.4
19/03:30am 26.6 27.4 21.8 75 3.2 ESE 20 33 11 18 1010.9 - 0.4
19/03:00am 26.6 26.8 22.0 76 3.1 ESE 24 33 13 18 1011.2 1011.1 0.4
19/02:30am 26.7 26.6 22.3 77 3.0 ESE 26 35 14 19 1011.3 - 0.4
19/02:00am 26.6 27.3 22.2 77 3.0 ESE 22 32 12 17 1011.5 - 0.4
19/01:30am 26.5 27.7 22.1 77 3.0 ESE 19 26 10 14 1011.8 - 0.4
19/01:00am 26.4 27.7 22.3 78 2.8 SE 19 26 10 14 1012.0 - 0.4
19/12:30am 26.6 27.4 22.4 78 2.8 SE 22 32 12 17 1012.4 - 0.4
19/12:00am 26.7 27.8 23.0 80 2.5 SE 22 33 12 18 1012.6 1012.5 0.4
 
Date/Time
EST
Temp
°C
App
Temp
°C
Dew
Point
Rel
Hum
%
Delta-T
°C
Wind Press
QNH
hPa
Press
MSL
hPa
Rain
since 9 am
mm
Dir
 
Spd
km/h
Gust
km/h
Spd
kts
Gust
kts
18/11:30pm 26.6 27.9 22.7 79 2.6 ESE 20 26 11 14 1012.9 - 0.4
18/11:00pm 26.5 27.9 22.6 79 2.6 SE 19 26 10 14 1013.2 - 0.4
18/10:30pm 26.6 27.7 22.4 78 2.8 SE 20 30 11 16 1013.3 - 0.4
18/10:00pm 26.6 27.6 22.2 77 3.0 SE 20 26 11 14 1013.2 - 0.4
18/09:30pm 26.6 27.7 22.4 78 2.8 SE 20 28 11 15 1013.5 - 0.4
18/09:00pm 26.8 28.1 22.4 77 3.0 ESE 19 26 10 14 1013.5 1013.4 0.4
18/08:30pm 26.9 28.1 22.1 75 3.2 SE 19 28 10 15 1013.4 - 0.4
18/08:00pm 26.8 27.3 22.0 75 3.2 SE 22 33 12 18 1012.8 - 0.4
18/07:30pm 26.5 28.4 22.8 80 2.5 SE 17 24 9 13 1012.2 - 0.4
18/07:00pm 26.5 28.5 23.0 81 2.4 SE 17 26 9 14 1011.7 - 0.4
18/06:30pm 26.4 28.7 22.7 80 2.5 SE 15 19 8 10 1011.5 - 0.4
18/06:00pm 26.8 27.7 22.6 78 2.8 SE 22 30 12 16 1011.1 1011.0 0.4
18/05:30pm 26.7 27.5 22.5 78 2.8 SE 22 28 12 15 1011.0 - 0.4
18/05:00pm 26.4 28.2 23.5 84 2.0 ESE 20 30 11 16 1010.6 - 0.4
18/04:30pm 26.3 28.6 23.4 84 2.0 SE 17 30 9 16 1010.4 - 0.2
18/04:00pm 26.9 27.8 23.4 81 2.4 SE 24 35 13 19 1010.2 - 0.0
18/03:30pm 27.2 28.7 23.0 78 2.9 SE 20 32 11 17 1010.0 - 0.0
18/03:00pm 28.0 29.1 23.1 74 3.3 SE 22 32 12 17 1010.1 1010.0 0.0
18/02:30pm 28.6 29.2 22.8 71 3.9 SE 24 35 13 19 1010.3 - 0.0

Other Formats:

Comma delimited format used in spreadsheet applications
http://www.bom.gov.au/fwo/IDQ60801/IDQ60801.94186.axf

JavaScript Object Notation format (JSON) in row-major order
http://www.bom.gov.au/fwo/IDQ60801/IDQ60801.94186.json